Terminal Aerodrome Forecast
Issued by NWS

Home | Current Version | Previous Version | Text Only | Print | Product List | Glossary On
Versions: 1 2 3 4 5 6 7 8 9 10 11 12 13
000
FTUS44 KTSA 292328
TAFMLC
TAF
KMLC 292328Z 3000/3024 VRB03KT P6SM SCT080
     FM300200 VRB03KT P6SM FEW250
     FM301500 02005KT P6SM SCT250
     FM301900 02005KT P6SM SCT060 SCT250=

USA.gov is the U.S. government's official web portal to all federal, state and local government web resources and services.